sensor_id;sensor_type;location;lat;lon;timestamp;P1;durP1;ratioP1;P2;durP2;ratioP2
63959;SDS011;50136;51.374;0.096;2024-02-21T00:00:28;14.65;;;3.10;;
63959;SDS011;50136;51.374;0.096;2024-02-21T00:10:30;12.73;;;2.72;;
63959;SDS011;50136;51.374;0.096;2024-02-21T00:20:33;16.85;;;3.65;;
63959;SDS011;50136;51.374;0.096;2024-02-21T00:30:35;15.48;;;3.53;;
63959;SDS011;50136;51.374;0.096;2024-02-21T00:40:38;18.77;;;3.97;;
63959;SDS011;50136;51.374;0.096;2024-02-21T00:50:40;23.05;;;3.88;;
63959;SDS011;50136;51.374;0.096;2024-02-21T01:00:44;14.35;;;4.18;;
63959;SDS011;50136;51.374;0.096;2024-02-21T01:10:46;13.48;;;3.10;;
63959;SDS011;50136;51.374;0.096;2024-02-21T01:20:50;17.65;;;3.35;;
63959;SDS011;50136;51.374;0.096;2024-02-21T01:30:52;16.30;;;3.40;;
63959;SDS011;50136;51.374;0.096;2024-02-21T01:40:55;15.45;;;4.18;;
63959;SDS011;50136;51.374;0.096;2024-02-21T01:50:57;12.45;;;2.83;;
63959;SDS011;50136;51.374;0.096;2024-02-21T02:01:01;21.80;;;4.28;;
63959;SDS011;50136;51.374;0.096;2024-02-21T02:11:15;17.38;;;3.78;;
63959;SDS011;50136;51.374;0.096;2024-02-21T02:21:29;17.05;;;3.42;;
63959;SDS011;50136;51.374;0.096;2024-02-21T02:31:35;17.70;;;4.03;;
63959;SDS011;50136;51.374;0.096;2024-02-21T02:41:37;19.90;;;3.88;;
63959;SDS011;50136;51.374;0.096;2024-02-21T02:51:42;13.20;;;3.15;;
63959;SDS011;50136;51.374;0.096;2024-02-21T03:01:44;19.80;;;3.03;;
63959;SDS011;50136;51.374;0.096;2024-02-21T03:11:47;22.58;;;4.22;;
63959;SDS011;50136;51.374;0.096;2024-02-21T03:21:49;18.33;;;4.07;;
63959;SDS011;50136;51.374;0.096;2024-02-21T03:31:53;26.98;;;3.65;;
63959;SDS011;50136;51.374;0.096;2024-02-21T03:41:56;16.60;;;3.58;;
63959;SDS011;50136;51.374;0.096;2024-02-21T03:51:59;9.55;;;2.83;;
63959;SDS011;50136;51.374;0.096;2024-02-21T04:02:01;21.83;;;3.97;;
63959;SDS011;50136;51.374;0.096;2024-02-21T04:12:05;11.20;;;3.20;;
63959;SDS011;50136;51.374;0.096;2024-02-21T04:22:09;11.93;;;2.90;;
63959;SDS011;50136;51.374;0.096;2024-02-21T04:32:12;12.80;;;2.65;;
63959;SDS011;50136;51.374;0.096;2024-02-21T04:42:14;11.85;;;3.47;;
63959;SDS011;50136;51.374;0.096;2024-02-21T04:52:18;12.02;;;3.55;;
63959;SDS011;50136;51.374;0.096;2024-02-21T05:02:20;13.00;;;2.80;;
63959;SDS011;50136;51.374;0.096;2024-02-21T05:12:23;10.60;;;2.67;;
63959;SDS011;50136;51.374;0.096;2024-02-21T05:22:27;11.70;;;2.67;;
63959;SDS011;50136;51.374;0.096;2024-02-21T05:32:30;16.73;;;5.20;;
63959;SDS011;50136;51.374;0.096;2024-02-21T05:42:32;13.00;;;2.45;;
63959;SDS011;50136;51.374;0.096;2024-02-21T05:52:35;7.90;;;2.55;;
63959;SDS011;50136;51.374;0.096;2024-02-21T06:02:37;17.65;;;2.33;;
63959;SDS011;50136;51.374;0.096;2024-02-21T06:12:41;8.63;;;2.38;;
63959;SDS011;50136;51.374;0.096;2024-02-21T06:22:43;7.80;;;2.75;;
63959;SDS011;50136;51.374;0.096;2024-02-21T06:32:47;5.95;;;1.50;;
63959;SDS011;50136;51.374;0.096;2024-02-21T06:42:49;3.30;;;1.38;;
63959;SDS011;50136;51.374;0.096;2024-02-21T06:52:53;4.47;;;1.80;;
63959;SDS011;50136;51.374;0.096;2024-02-21T07:02:55;5.82;;;1.50;;
63959;SDS011;50136;51.374;0.096;2024-02-21T07:12:59;5.28;;;1.42;;
63959;SDS011;50136;51.374;0.096;2024-02-21T07:23:01;3.45;;;1.48;;
63959;SDS011;50136;51.374;0.096;2024-02-21T07:33:04;6.32;;;1.58;;
63959;SDS011;50136;51.374;0.096;2024-02-21T07:43:06;4.07;;;1.65;;
63959;SDS011;50136;51.374;0.096;2024-02-21T07:53:10;5.95;;;1.88;;
63959;SDS011;50136;51.374;0.096;2024-02-21T08:03:12;5.85;;;1.83;;
63959;SDS011;50136;51.374;0.096;2024-02-21T08:13:15;7.43;;;1.77;;
63959;SDS011;50136;51.374;0.096;2024-02-21T08:23:18;20.35;;;4.20;;
63959;SDS011;50136;51.374;0.096;2024-02-21T08:33:21;9.63;;;2.67;;
63959;SDS011;50136;51.374;0.096;2024-02-21T08:43:24;11.35;;;2.30;;
63959;SDS011;50136;51.374;0.096;2024-02-21T08:53:27;8.88;;;2.17;;
63959;SDS011;50136;51.374;0.096;2024-02-21T09:03:30;7.40;;;1.83;;
63959;SDS011;50136;51.374;0.096;2024-02-21T09:13:35;14.10;;;2.10;;
63959;SDS011;50136;51.374;0.096;2024-02-21T09:23:40;7.07;;;2.05;;
63959;SDS011;50136;51.374;0.096;2024-02-21T09:33:43;6.05;;;1.50;;
63959;SDS011;50136;51.374;0.096;2024-02-21T09:43:45;3.70;;;1.95;;
63959;SDS011;50136;51.374;0.096;2024-02-21T09:53:49;9.90;;;1.95;;
63959;SDS011;50136;51.374;0.096;2024-02-21T10:04:07;5.77;;;1.43;;
63959;SDS011;50136;51.374;0.096;2024-02-21T10:14:10;5.20;;;1.35;;
63959;SDS011;50136;51.374;0.096;2024-02-21T10:24:13;6.88;;;1.50;;
63959;SDS011;50136;51.374;0.096;2024-02-21T10:34:16;5.50;;;1.55;;
63959;SDS011;50136;51.374;0.096;2024-02-21T10:44:18;6.03;;;2.35;;
63959;SDS011;50136;51.374;0.096;2024-02-21T10:54:29;1.23;;;1.10;;
63959;SDS011;50136;51.374;0.096;2024-02-21T11:04:40;5.97;;;0.93;;
63959;SDS011;50136;51.374;0.096;2024-02-21T11:14:45;2.25;;;0.95;;
63959;SDS011;50136;51.374;0.096;2024-02-21T11:24:48;8.90;;;1.83;;
63959;SDS011;50136;51.374;0.096;2024-02-21T11:34:55;4.53;;;0.98;;
63959;SDS011;50136;51.374;0.096;2024-02-21T11:44:59;1.00;;;0.60;;
63959;SDS011;50136;51.374;0.096;2024-02-21T11:55:04;2.53;;;0.90;;
63959;SDS011;50136;51.374;0.096;2024-02-21T12:05:07;3.63;;;0.70;;
63959;SDS011;50136;51.374;0.096;2024-02-21T12:15:11;5.00;;;0.93;;
63959;SDS011;50136;51.374;0.096;2024-02-21T12:25:16;6.90;;;0.90;;
63959;SDS011;50136;51.374;0.096;2024-02-21T12:35:20;2.50;;;0.75;;
63959;SDS011;50136;51.374;0.096;2024-02-21T12:45:22;2.83;;;1.08;;
63959;SDS011;50136;51.374;0.096;2024-02-21T12:55:26;1.88;;;0.82;;
63959;SDS011;50136;51.374;0.096;2024-02-21T13:05:28;2.53;;;0.90;;
63959;SDS011;50136;51.374;0.096;2024-02-21T13:15:31;2.55;;;0.70;;
63959;SDS011;50136;51.374;0.096;2024-02-21T13:25:33;3.28;;;0.68;;
63959;SDS011;50136;51.374;0.096;2024-02-21T13:35:37;4.35;;;0.75;;
63959;SDS011;50136;51.374;0.096;2024-02-21T13:45:39;2.35;;;0.80;;
63959;SDS011;50136;51.374;0.096;2024-02-21T13:55:42;2.42;;;0.80;;
63959;SDS011;50136;51.374;0.096;2024-02-21T14:05:44;2.95;;;0.60;;
63959;SDS011;50136;51.374;0.096;2024-02-21T14:15:48;2.53;;;1.00;;
63959;SDS011;50136;51.374;0.096;2024-02-21T14:25:50;1.98;;;0.82;;
63959;SDS011;50136;51.374;0.096;2024-02-21T14:35:53;1.55;;;0.90;;
63959;SDS011;50136;51.374;0.096;2024-02-21T14:45:55;1.13;;;0.60;;
63959;SDS011;50136;51.374;0.096;2024-02-21T14:55:59;3.30;;;0.90;;
63959;SDS011;50136;51.374;0.096;2024-02-21T15:06:01;1.10;;;0.80;;
63959;SDS011;50136;51.374;0.096;2024-02-21T15:16:05;3.35;;;0.90;;
63959;SDS011;50136;51.374;0.096;2024-02-21T15:26:07;3.03;;;0.75;;
63959;SDS011;50136;51.374;0.096;2024-02-21T15:36:11;2.97;;;0.70;;
63959;SDS011;50136;51.374;0.096;2024-02-21T15:46:13;3.03;;;0.90;;
63959;SDS011;50136;51.374;0.096;2024-02-21T15:56:16;5.63;;;0.90;;
63959;SDS011;50136;51.374;0.096;2024-02-21T16:06:18;1.70;;;1.00;;
63959;SDS011;50136;51.374;0.096;2024-02-21T16:16:22;4.28;;;0.65;;
63959;SDS011;50136;51.374;0.096;2024-02-21T16:26:24;0.77;;;0.50;;
63959;SDS011;50136;51.374;0.096;2024-02-21T16:36:28;4.15;;;0.88;;
63959;SDS011;50136;51.374;0.096;2024-02-21T16:46:30;1.35;;;0.80;;
63959;SDS011;50136;51.374;0.096;2024-02-21T16:56:33;2.42;;;0.90;;
63959;SDS011;50136;51.374;0.096;2024-02-21T17:06:35;2.80;;;0.70;;
63959;SDS011;50136;51.374;0.096;2024-02-21T17:16:39;4.55;;;1.08;;
63959;SDS011;50136;51.374;0.096;2024-02-21T17:26:41;3.22;;;1.33;;
63959;SDS011;50136;51.374;0.096;2024-02-21T17:36:45;2.53;;;1.17;;
63959;SDS011;50136;51.374;0.096;2024-02-21T17:46:47;2.25;;;0.88;;
63959;SDS011;50136;51.374;0.096;2024-02-21T17:56:50;2.15;;;0.90;;
63959;SDS011;50136;51.374;0.096;2024-02-21T18:06:52;2.15;;;0.88;;
63959;SDS011;50136;51.374;0.096;2024-02-21T18:16:56;4.53;;;1.02;;
63959;SDS011;50136;51.374;0.096;2024-02-21T18:26:58;2.53;;;0.95;;
63959;SDS011;50136;51.374;0.096;2024-02-21T18:37:02;3.63;;;1.50;;
63959;SDS011;50136;51.374;0.096;2024-02-21T18:47:04;4.95;;;1.80;;
63959;SDS011;50136;51.374;0.096;2024-02-21T18:57:08;6.80;;;2.17;;
63959;SDS011;50136;51.374;0.096;2024-02-21T19:07:10;4.95;;;1.30;;
63959;SDS011;50136;51.374;0.096;2024-02-21T19:17:13;12.77;;;2.03;;
63959;SDS011;50136;51.374;0.096;2024-02-21T19:27:16;40.92;;;16.92;;
63959;SDS011;50136;51.374;0.096;2024-02-21T19:37:19;8.82;;;2.92;;
63959;SDS011;50136;51.374;0.096;2024-02-21T19:47:21;14.30;;;2.85;;
63959;SDS011;50136;51.374;0.096;2024-02-21T19:57:24;21.77;;;3.47;;
63959;SDS011;50136;51.374;0.096;2024-02-21T20:07:26;14.85;;;2.65;;
63959;SDS011;50136;51.374;0.096;2024-02-21T20:17:30;19.10;;;3.30;;
63959;SDS011;50136;51.374;0.096;2024-02-21T20:27:32;15.98;;;2.80;;
63959;SDS011;50136;51.374;0.096;2024-02-21T20:37:35;17.20;;;4.78;;
63959;SDS011;50136;51.374;0.096;2024-02-21T20:47:37;15.25;;;4.03;;
63959;SDS011;50136;51.374;0.096;2024-02-21T20:57:41;14.57;;;2.75;;
63959;SDS011;50136;51.374;0.096;2024-02-21T21:07:43;15.55;;;3.00;;
63959;SDS011;50136;51.374;0.096;2024-02-21T21:17:47;13.68;;;2.63;;
63959;SDS011;50136;51.374;0.096;2024-02-21T21:27:49;12.27;;;1.88;;
63959;SDS011;50136;51.374;0.096;2024-02-21T21:37:52;19.58;;;3.85;;
63959;SDS011;50136;51.374;0.096;2024-02-21T21:47:59;15.27;;;2.80;;
63959;SDS011;50136;51.374;0.096;2024-02-21T21:58:02;12.38;;;3.35;;
63959;SDS011;50136;51.374;0.096;2024-02-21T22:08:05;11.25;;;2.80;;
63959;SDS011;50136;51.374;0.096;2024-02-21T22:18:09;10.82;;;3.05;;
63959;SDS011;50136;51.374;0.096;2024-02-21T22:28:11;10.57;;;2.80;;
63959;SDS011;50136;51.374;0.096;2024-02-21T22:38:14;17.33;;;5.65;;
63959;SDS011;50136;51.374;0.096;2024-02-21T22:48:16;20.75;;;4.45;;
63959;SDS011;50136;51.374;0.096;2024-02-21T22:58:20;19.90;;;3.95;;
63959;SDS011;50136;51.374;0.096;2024-02-21T23:08:22;20.75;;;3.58;;
63959;SDS011;50136;51.374;0.096;2024-02-21T23:18:25;19.42;;;4.03;;
63959;SDS011;50136;51.374;0.096;2024-02-21T23:28:27;23.25;;;4.40;;
63959;SDS011;50136;51.374;0.096;2024-02-21T23:38:31;25.38;;;6.45;;
63959;SDS011;50136;51.374;0.096;2024-02-21T23:48:33;22.33;;;4.88;;
63959;SDS011;50136;51.374;0.096;2024-02-21T23:58:36;18.83;;;4.10;;
